»·PEaware :: N800DW MMSD-KLAS

N800DW :: MMSD-KLAS

FLIGHT INFORMATION

Flight Status: Arrived
Operator: Privately registered:
United States
More flights under this callsign
Pilot: Scott L. (17677)
Aircraft: Unknown
(EPIC)
More flights by this aircraft type
Origin: MMSD Los Cabos Intl
Mexico
Destination: KLAS McCarran Intl
United States
More flights between these airports :: More routes between these airports
Route: +SID SJD UJ51 LMM UJ3 HMO J92 TUS J11 DRK KADDY2
File this flight plan on PilotEdge
Remarks:
Altitude:
(Current/Filed)
31,000ft
Speed:
(Current/Filed)
250kts
Departed: 10-Feb-18 01:09 PM
Arrived: 10-Feb-18 05:02 PM
Distance/Time
Traveled:
826nm/3:53
Distance/Time
To Go:
Arrived

Flight Plot

Page will automatically refresh every two minutes.

Flight plan parsing failed; only flown route is shown


Map Options




Map Legend


Flown Route
Filed Route
Departure Airport
Arrival Airport
Navaid (VOR, NDB)
Fix

Horizontal Profiles

Position Reports

Time Latitude Longitude Heading Altitude Ground
Speed
10-Feb-18 13:15 29.283900 -111.043721 356 30935ft 301kts
10-Feb-18 13:16 29.366273 -111.040069 356 30935ft 301kts
10-Feb-18 13:17 29.449099 -111.036360 356 30935ft 301kts
10-Feb-18 13:18 29.531741 -111.032644 356 30935ft 301kts
10-Feb-18 13:19 29.614874 -111.028912 356 30934ft 301kts
10-Feb-18 13:20 29.697988 -111.025193 356 30934ft 302kts
10-Feb-18 13:21 29.780929 -111.021469 356 30933ft 297kts
10-Feb-18 13:22 29.861525 -111.017850 356 30933ft 287kts
10-Feb-18 13:23 29.940250 -111.014321 355 30933ft 282kts
10-Feb-18 13:24 30.018101 -111.010821 355 30933ft 280kts
10-Feb-18 13:25 30.095281 -111.007344 355 30933ft 279kts
10-Feb-18 13:26 30.164680 -111.004214 355 30936ft 280kts
10-Feb-18 13:27 30.241914 -111.000725 355 30936ft 280kts
10-Feb-18 13:28 30.318877 -110.997238 355 30951ft 279kts
10-Feb-18 13:29 30.395996 -110.993743 355 30969ft 279kts
10-Feb-18 13:30 30.468060 -110.990469 355 30972ft 279kts
10-Feb-18 13:31 30.545432 -110.986910 355 30971ft 280kts
10-Feb-18 13:32 30.622595 -110.983321 355 30971ft 280kts
10-Feb-18 13:33 30.699981 -110.979717 355 30971ft 280kts
10-Feb-18 13:34 30.775374 -110.976201 355 30971ft 281kts
10-Feb-18 13:35 30.849088 -110.972756 356 30971ft 283kts
10-Feb-18 13:36 30.929828 -110.968993 356 30971ft 294kts
10-Feb-18 13:37 30.929828 -110.968993 356 30971ft 294kts
10-Feb-18 13:38 30.929828 -110.968993 356 30971ft 294kts
10-Feb-18 13:39 30.929828 -110.968993 356 30971ft 294kts
10-Feb-18 13:39 30.929828 -110.968993 356 30971ft 294kts
10-Feb-18 13:41 30.929828 -110.968993 356 30971ft 294kts
10-Feb-18 13:42 30.929828 -110.968993 356 30971ft 294kts
10-Feb-18 13:42 30.929828 -110.968993 356 30971ft 294kts
10-Feb-18 13:44 30.929828 -110.968993 356 30971ft 294kts
10-Feb-18 13:45 30.929828 -110.968993 356 30971ft 294kts
10-Feb-18 13:45 30.929828 -110.968993 356 30971ft 294kts
10-Feb-18 13:46 30.929828 -110.968993 356 30971ft 294kts
10-Feb-18 13:47 30.929828 -110.968993 356 30971ft 294kts
10-Feb-18 13:48 30.929828 -110.968993 356 30971ft 294kts
10-Feb-18 13:49 30.929828 -110.968993 356 30971ft 294kts
10-Feb-18 13:50 30.929828 -110.968993 356 30971ft 294kts
10-Feb-18 13:51 30.929828 -110.968993 356 30971ft 294kts
10-Feb-18 13:52 30.929828 -110.968993 356 30971ft 294kts
10-Feb-18 13:53 30.929828 -110.968993 356 30971ft 294kts
10-Feb-18 13:54 30.929828 -110.968993 356 30971ft 294kts
10-Feb-18 13:55 30.929828 -110.968993 356 30971ft 294kts
10-Feb-18 13:56 30.929828 -110.968993 356 30971ft 294kts
10-Feb-18 13:57 30.929828 -110.968993 356 30971ft 294kts
10-Feb-18 13:58 30.929828 -110.968993 356 30971ft 294kts
10-Feb-18 13:59 30.929828 -110.968993 356 30971ft 294kts
10-Feb-18 14:00 30.929828 -110.968993 356 30971ft 294kts
10-Feb-18 14:01 30.929828 -110.968993 356 30971ft 294kts
10-Feb-18 14:02 30.929828 -110.968993 356 30971ft 294kts
10-Feb-18 14:03 30.929828 -110.968993 356 30971ft 294kts
10-Feb-18 14:04 30.929828 -110.968993 356 30971ft 294kts
10-Feb-18 14:06 30.929828 -110.968993 356 30971ft 294kts
10-Feb-18 14:07 30.929828 -110.968993 356 30971ft 294kts
10-Feb-18 14:08 30.929828 -110.968993 356 30971ft 294kts
10-Feb-18 14:09 30.929828 -110.968993 356 30971ft 294kts
10-Feb-18 14:10 30.929828 -110.968993 356 30971ft 294kts
10-Feb-18 14:11 30.929828 -110.968993 356 30971ft 294kts
10-Feb-18 14:12 30.929828 -110.968993 356 30971ft 294kts
10-Feb-18 14:13 30.929828 -110.968993 356 30971ft 294kts
10-Feb-18 14:14 30.929828 -110.968993 356 30971ft 294kts
10-Feb-18 14:15 30.929828 -110.968993 356 30971ft 294kts
10-Feb-18 14:16 30.929828 -110.968993 356 30971ft 294kts
10-Feb-18 14:17 30.929828 -110.968993 356 30971ft 294kts
10-Feb-18 14:18 30.929828 -110.968993 356 30971ft 294kts
10-Feb-18 14:19 30.929828 -110.968993 356 30971ft 294kts
10-Feb-18 14:20 30.929828 -110.968993 356 30971ft 294kts
10-Feb-18 14:21 30.929828 -110.968993 356 30971ft 294kts
10-Feb-18 14:22 30.929828 -110.968993 356 30971ft 294kts
10-Feb-18 14:23 30.929828 -110.968993 356 30971ft 294kts
10-Feb-18 14:24 30.929828 -110.968993 356 30971ft 294kts
10-Feb-18 14:25 30.929828 -110.968993 356 30971ft 294kts
10-Feb-18 14:26 30.929828 -110.968993 356 30971ft 294kts
10-Feb-18 14:27 30.929828 -110.968993 356 30971ft 294kts
10-Feb-18 14:28 30.929828 -110.968993 356 30971ft 294kts
10-Feb-18 14:29 30.929828 -110.968993 356 30971ft 294kts
10-Feb-18 14:30 30.929828 -110.968993 356 30971ft 294kts
10-Feb-18 14:31 30.929828 -110.968993 356 30971ft 294kts
10-Feb-18 14:32 30.929828 -110.968993 356 30971ft 294kts
10-Feb-18 14:33 30.929828 -110.968993 356 30971ft 294kts
10-Feb-18 14:34 30.929828 -110.968993 356 30971ft 294kts
10-Feb-18 14:35 30.929828 -110.968993 356 30971ft 294kts
10-Feb-18 14:36 30.929828 -110.968993 356 30971ft 294kts
10-Feb-18 14:37 30.929828 -110.968993 356 30971ft 294kts
10-Feb-18 14:38 30.929828 -110.968993 356 30971ft 294kts
10-Feb-18 14:39 30.929828 -110.968993 356 30971ft 294kts
10-Feb-18 14:40 30.929828 -110.968993 356 30971ft 294kts
10-Feb-18 14:41 30.929828 -110.968993 356 30971ft 294kts
10-Feb-18 14:42 30.929828 -110.968993 356 30971ft 294kts
10-Feb-18 14:43 30.929828 -110.968993 356 30971ft 294kts
10-Feb-18 14:44 30.929828 -110.968993 356 30971ft 294kts
10-Feb-18 14:45 30.929828 -110.968993 356 30971ft 294kts
10-Feb-18 14:46 30.929828 -110.968993 356 30971ft 294kts
10-Feb-18 14:47 30.929828 -110.968993 356 30971ft 294kts
10-Feb-18 14:48 30.929828 -110.968993 356 30971ft 294kts
10-Feb-18 14:49 31.002817 -110.965557 356 30905ft 292kts
10-Feb-18 14:50 31.082649 -110.961797 356 30903ft 284kts
10-Feb-18 14:51 31.158115 -110.958254 356 30911ft 281kts
10-Feb-18 14:52 31.235930 -110.954584 356 30910ft 280kts
10-Feb-18 14:53 31.260519 -110.953430 356 30910ft 280kts
10-Feb-18 14:54 31.275236 -110.952736 356 30909ft 279kts
10-Feb-18 14:55 31.352698 -110.949116 356 30909ft 279kts
10-Feb-18 14:56 31.430171 -110.945576 356 30909ft 279kts
10-Feb-18 14:57 31.507343 -110.942045 356 30908ft 279kts
10-Feb-18 14:58 31.584739 -110.938509 356 30907ft 279kts
10-Feb-18 14:59 31.661885 -110.934969 356 30907ft 279kts
10-Feb-18 15:00 31.739278 -110.931416 356 30884ft 279kts
10-Feb-18 15:01 31.817013 -110.927840 356 30848ft 282kts
10-Feb-18 15:02 31.895458 -110.924224 356 30832ft 283kts
10-Feb-18 15:03 31.973925 -110.920600 356 30831ft 283kts
10-Feb-18 15:04 32.052211 -110.916981 356 30827ft 283kts
10-Feb-18 15:05 32.117491 -110.941572 323 30830ft 272kts
10-Feb-18 15:06 32.175086 -110.994418 320 30826ft 271kts
10-Feb-18 15:07 32.233009 -111.050957 319 30815ft 272kts
10-Feb-18 15:08 32.291101 -111.108290 319 30795ft 271kts
10-Feb-18 15:09 32.348592 -111.165203 319 30780ft 270kts
10-Feb-18 15:10 32.406111 -111.222246 319 30779ft 270kts
10-Feb-18 15:11 32.465604 -111.281335 319 29915ft 290kts
10-Feb-18 15:12 32.526583 -111.342039 318 29776ft 281kts
10-Feb-18 15:13 32.585544 -111.400846 318 29775ft 275kts
10-Feb-18 15:14 32.643578 -111.458822 318 29772ft 273kts
10-Feb-18 15:15 32.701607 -111.516900 318 29769ft 272kts
10-Feb-18 15:16 32.759283 -111.574716 318 29766ft 272kts
10-Feb-18 15:17 32.816804 -111.632480 319 29763ft 271kts
10-Feb-18 15:18 32.883728 -111.672565 331 29770ft 274kts
10-Feb-18 15:19 32.953129 -111.710249 332 29769ft 274kts
10-Feb-18 15:20 33.022586 -111.747686 330 29772ft 274kts
10-Feb-18 15:21 33.091394 -111.784806 329 29774ft 272kts
10-Feb-18 15:22 33.160000 -111.821959 328 29777ft 272kts
10-Feb-18 15:23 33.228899 -111.859306 328 29774ft 273kts
10-Feb-18 15:24 33.297714 -111.896646 328 29773ft 272kts
10-Feb-18 15:25 33.366554 -111.934099 328 29777ft 272kts
10-Feb-18 15:26 33.371785 -111.936944 328 29778ft 272kts
10-Feb-18 15:27 33.371785 -111.936944 328 29778ft 272kts
10-Feb-18 15:28 33.371785 -111.936944 328 29778ft 272kts
10-Feb-18 15:29 33.371785 -111.936944 328 29778ft 272kts
10-Feb-18 15:30 33.371785 -111.936944 328 29778ft 272kts
10-Feb-18 15:31 33.371785 -111.936944 328 29778ft 272kts
10-Feb-18 15:32 33.371785 -111.936944 328 29778ft 272kts
10-Feb-18 15:33 33.371785 -111.936944 328 29778ft 272kts
10-Feb-18 15:34 33.371785 -111.936944 328 29778ft 272kts
10-Feb-18 15:35 33.371785 -111.936944 328 29778ft 272kts
10-Feb-18 15:36 33.371785 -111.936944 328 29778ft 272kts
10-Feb-18 15:37 33.371785 -111.936944 328 29778ft 272kts
10-Feb-18 15:38 33.371785 -111.936944 328 29778ft 272kts
10-Feb-18 15:39 33.371785 -111.936944 328 29778ft 272kts
10-Feb-18 15:40 33.371785 -111.936944 328 29778ft 272kts
10-Feb-18 15:41 33.371785 -111.936944 328 29778ft 272kts
10-Feb-18 15:42 33.371785 -111.936944 328 29778ft 272kts
10-Feb-18 15:43 33.371785 -111.936944 328 29778ft 272kts
10-Feb-18 15:44 33.371785 -111.936944 328 29778ft 272kts
10-Feb-18 15:45 33.371785 -111.936944 328 29778ft 272kts
10-Feb-18 15:46 33.371785 -111.936944 328 29778ft 272kts
10-Feb-18 15:47 33.371785 -111.936944 328 29778ft 272kts
10-Feb-18 15:48 33.371785 -111.936944 328 29778ft 272kts
10-Feb-18 15:49 33.371785 -111.936944 328 29778ft 272kts
10-Feb-18 15:49 33.371785 -111.936944 328 29778ft 272kts
10-Feb-18 15:51 33.371785 -111.936944 328 29778ft 272kts
10-Feb-18 15:51 33.371785 -111.936944 328 29778ft 272kts
10-Feb-18 15:53 33.371785 -111.936944 328 29778ft 272kts
10-Feb-18 15:53 33.371785 -111.936944 328 29778ft 272kts
10-Feb-18 15:54 33.371785 -111.936944 328 29778ft 272kts
10-Feb-18 15:55 33.371785 -111.936944 328 29778ft 272kts
10-Feb-18 15:56 33.371785 -111.936944 328 29778ft 272kts
10-Feb-18 15:57 33.371785 -111.936944 328 29778ft 272kts
10-Feb-18 15:58 33.371785 -111.936944 328 29778ft 272kts
10-Feb-18 15:59 33.371785 -111.936944 328 29778ft 272kts
10-Feb-18 16:00 33.371785 -111.936944 328 29778ft 272kts
10-Feb-18 16:01 33.371785 -111.936944 328 29778ft 272kts
10-Feb-18 16:02 33.371785 -111.936944 328 29778ft 272kts
10-Feb-18 16:03 33.371785 -111.936944 328 29778ft 272kts
10-Feb-18 16:04 33.371785 -111.936944 328 29778ft 272kts
10-Feb-18 16:05 33.371785 -111.936944 328 29778ft 272kts
10-Feb-18 16:06 33.371785 -111.936944 328 29778ft 272kts
10-Feb-18 16:07 33.371785 -111.936944 328 29778ft 272kts
10-Feb-18 16:08 33.385375 -111.944331 327 29775ft 272kts
10-Feb-18 16:09 33.450370 -111.976032 331 29736ft 274kts
10-Feb-18 16:10 33.522504 -112.005584 332 29736ft 274kts
10-Feb-18 16:11 33.594600 -112.034331 332 29738ft 274kts
10-Feb-18 16:13 33.666704 -112.063007 332 29734ft 274kts
10-Feb-18 16:14 33.738875 -112.091748 332 29732ft 273kts
10-Feb-18 16:15 33.810885 -112.120467 332 29731ft 273kts
10-Feb-18 16:16 33.882663 -112.149152 332 29730ft 273kts
10-Feb-18 16:17 33.954631 -112.177961 332 29729ft 273kts
10-Feb-18 16:18 34.026618 -112.206829 332 29728ft 273kts
10-Feb-18 16:19 34.098270 -112.235620 332 29733ft 272kts
10-Feb-18 16:20 34.169749 -112.264382 332 29778ft 272kts
10-Feb-18 16:21 34.241255 -112.293212 332 29818ft 272kts
10-Feb-18 16:22 34.312815 -112.322115 332 29823ft 272kts
10-Feb-18 16:23 34.384738 -112.351217 332 29822ft 272kts
10-Feb-18 16:24 34.456486 -112.380300 332 29821ft 272kts
10-Feb-18 16:25 34.528195 -112.409420 332 29820ft 272kts
10-Feb-18 16:26 34.599966 -112.438620 332 29819ft 272kts
10-Feb-18 16:27 34.671588 -112.467813 332 29818ft 272kts
10-Feb-18 16:28 34.718849 -112.529240 297 29819ft 254kts
10-Feb-18 16:29 34.751011 -112.605520 295 29817ft 253kts
10-Feb-18 16:30 34.781178 -112.681780 294 29827ft 254kts
10-Feb-18 16:31 34.811580 -112.759634 294 29826ft 255kts
10-Feb-18 16:32 34.841761 -112.837330 294 29825ft 255kts
10-Feb-18 16:33 34.872237 -112.915946 295 29824ft 256kts
10-Feb-18 16:34 34.902603 -112.994483 296 29821ft 257kts
10-Feb-18 16:35 34.933064 -113.073404 296 29817ft 257kts
10-Feb-18 16:36 34.963225 -113.151695 296 29808ft 254kts
10-Feb-18 16:37 34.993715 -113.231079 296 29063ft 266kts
10-Feb-18 16:38 35.025280 -113.313463 297 28007ft 269kts
10-Feb-18 16:39 35.056980 -113.396424 297 26944ft 272kts
10-Feb-18 16:40 35.088989 -113.480427 297 25873ft 275kts
10-Feb-18 16:41 35.121190 -113.565155 297 24846ft 279kts
10-Feb-18 16:42 35.153785 -113.651130 296 23852ft 282kts
10-Feb-18 16:43 35.165920 -113.683227 296 23821ft 275kts
10-Feb-18 16:44 35.196757 -113.764873 296 24022ft 262kts
10-Feb-18 16:45 35.224359 -113.838113 296 24022ft 260kts
10-Feb-18 16:46 35.254790 -113.918287 302 24010ft 259kts
10-Feb-18 16:47 35.317091 -113.965012 329 23553ft 283kts
10-Feb-18 16:48 35.392797 -114.009407 331 21569ft 315kts
10-Feb-18 16:49 35.473112 -114.055397 332 19570ft 314kts
10-Feb-18 16:50 35.547738 -114.098081 332 17081ft 282kts
10-Feb-18 16:51 35.612081 -114.146108 308 14568ft 274kts
10-Feb-18 16:52 35.656083 -114.222535 304 12130ft 274kts
10-Feb-18 16:53 35.695738 -114.296070 304 12007ft 251kts
10-Feb-18 16:54 35.733801 -114.367451 304 11992ft 248kts
10-Feb-18 16:55 35.788996 -114.413101 336 11983ft 247kts
10-Feb-18 16:56 35.852634 -114.445088 336 11979ft 247kts
10-Feb-18 16:57 35.897077 -114.499968 281 11733ft 258kts
10-Feb-18 16:58 35.908130 -114.585071 281 10788ft 275kts
10-Feb-18 16:59 35.919873 -114.677155 281 9799ft 281kts
10-Feb-18 17:00 35.931885 -114.773037 281 8790ft 284kts
10-Feb-18 17:01 35.943920 -114.869981 281 7778ft 287kts
10-Feb-18 17:02 35.955874 -114.966485 281 6985ft 283kts
10-Feb-18 17:03 35.969360 -115.054331 288 6968ft 219kts
10-Feb-18 17:04 35.979482 -115.131112 277 5902ft 256kts
10-Feb-18 17:05 35.996528 -115.195586 351 5242ft 123kts
10-Feb-18 17:06 36.031531 -115.191546 15 3473ft 127kts
10-Feb-18 17:07 36.061416 -115.175196 21 2568ft 110kts
10-Feb-18 17:08 36.087889 -115.159790 21 2116ft 64kts
10-Feb-18 17:09 36.093086 -115.157949 293 2115ft 0kts
10-Feb-18 17:10 36.094229 -115.160906 298 2115ft 15kts
10-Feb-18 17:11 36.094195 -115.162497 222 2115ft 0kts

Navigation Log

Ident Type
Flight plan parsing failed, navigation log unavailable